sensor_id;sensor_type;location;lat;lon;timestamp;temperature;humidity
65038;DHT22;51605;47.040;15.294;2023-02-01T00:01:59;20.00;56.80
65038;DHT22;51605;47.040;15.294;2023-02-01T00:04:25;20.00;56.80
65038;DHT22;51605;47.040;15.294;2023-02-01T00:06:51;20.00;56.90
65038;DHT22;51605;47.040;15.294;2023-02-01T00:09:16;20.00;56.90
65038;DHT22;51605;47.040;15.294;2023-02-01T00:11:42;20.00;56.90
65038;DHT22;51605;47.040;15.294;2023-02-01T00:14:08;20.00;56.80
65038;DHT22;51605;47.040;15.294;2023-02-01T00:16:34;20.00;56.80
65038;DHT22;51605;47.040;15.294;2023-02-01T00:19:06;20.00;57.80
65038;DHT22;51605;47.040;15.294;2023-02-01T00:21:32;20.00;56.80
65038;DHT22;51605;47.040;15.294;2023-02-01T00:23:58;20.00;56.80
65038;DHT22;51605;47.040;15.294;2023-02-01T00:26:35;20.00;56.80
65038;DHT22;51605;47.040;15.294;2023-02-01T00:29:03;20.00;56.80
65038;DHT22;51605;47.040;15.294;2023-02-01T00:31:29;20.00;56.80
65038;DHT22;51605;47.040;15.294;2023-02-01T00:33:55;20.00;56.80
65038;DHT22;51605;47.040;15.294;2023-02-01T00:36:21;20.00;56.80
65038;DHT22;51605;47.040;15.294;2023-02-01T00:38:47;20.00;56.80
65038;DHT22;51605;47.040;15.294;2023-02-01T00:41:18;20.00;56.90
65038;DHT22;51605;47.040;15.294;2023-02-01T00:43:45;20.00;56.90
65038;DHT22;51605;47.040;15.294;2023-02-01T00:46:12;20.00;56.80
65038;DHT22;51605;47.040;15.294;2023-02-01T00:48:38;20.00;56.80
65038;DHT22;51605;47.040;15.294;2023-02-01T00:51:07;20.00;56.80
65038;DHT22;51605;47.040;15.294;2023-02-01T00:53:33;20.00;56.80
65038;DHT22;51605;47.040;15.294;2023-02-01T00:55:59;20.00;56.80
65038;DHT22;51605;47.040;15.294;2023-02-01T00:58:25;20.00;56.80
65038;DHT22;51605;47.040;15.294;2023-02-01T01:01:06;20.00;56.80
65038;DHT22;51605;47.040;15.294;2023-02-01T01:03:33;20.00;56.80
65038;DHT22;51605;47.040;15.294;2023-02-01T01:06:00;20.00;56.70
65038;DHT22;51605;47.040;15.294;2023-02-01T01:08:26;20.00;56.80
65038;DHT22;51605;47.040;15.294;2023-02-01T01:10:52;20.00;56.80
65038;DHT22;51605;47.040;15.294;2023-02-01T01:13:18;20.00;56.80
65038;DHT22;51605;47.040;15.294;2023-02-01T01:15:44;20.00;56.80
65038;DHT22;51605;47.040;15.294;2023-02-01T01:18:09;20.00;56.80
65038;DHT22;51605;47.040;15.294;2023-02-01T01:20:37;20.00;56.70
65038;DHT22;51605;47.040;15.294;2023-02-01T01:23:03;20.00;56.70
65038;DHT22;51605;47.040;15.294;2023-02-01T01:25:29;20.00;56.80
65038;DHT22;51605;47.040;15.294;2023-02-01T01:27:55;20.00;56.80
65038;DHT22;51605;47.040;15.294;2023-02-01T01:30:20;20.00;56.80
65038;DHT22;51605;47.040;15.294;2023-02-01T01:32:46;20.00;56.90
65038;DHT22;51605;47.040;15.294;2023-02-01T01:35:12;20.00;56.90
65038;DHT22;51605;47.040;15.294;2023-02-01T01:37:37;20.00;56.90
65038;DHT22;51605;47.040;15.294;2023-02-01T01:40:06;20.00;56.80
65038;DHT22;51605;47.040;15.294;2023-02-01T01:42:38;20.00;56.80
65038;DHT22;51605;47.040;15.294;2023-02-01T01:47:54;20.00;56.80
65038;DHT22;51605;47.040;15.294;2023-02-01T01:50:32;20.00;56.80
65038;DHT22;51605;47.040;15.294;2023-02-01T01:53:01;20.00;56.70
65038;DHT22;51605;47.040;15.294;2023-02-01T01:55:32;20.00;56.70
65038;DHT22;51605;47.040;15.294;2023-02-01T01:58:05;20.00;56.70
65038;DHT22;51605;47.040;15.294;2023-02-01T02:00:32;20.00;56.80
65038;DHT22;51605;47.040;15.294;2023-02-01T02:02:59;20.00;56.80
65038;DHT22;51605;47.040;15.294;2023-02-01T02:05:26;20.00;56.70
65038;DHT22;51605;47.040;15.294;2023-02-01T02:07:57;20.10;56.70
65038;DHT22;51605;47.040;15.294;2023-02-01T02:10:23;20.00;56.70
65038;DHT22;51605;47.040;15.294;2023-02-01T02:13:10;20.00;56.70
65038;DHT22;51605;47.040;15.294;2023-02-01T02:15:40;20.00;56.70
65038;DHT22;51605;47.040;15.294;2023-02-01T02:18:30;20.00;56.80
65038;DHT22;51605;47.040;15.294;2023-02-01T02:21:12;20.00;56.80
65038;DHT22;51605;47.040;15.294;2023-02-01T02:23:53;20.00;56.70
65038;DHT22;51605;47.040;15.294;2023-02-01T02:35:36;20.00;56.70
65038;DHT22;51605;47.040;15.294;2023-02-01T02:41:19;20.10;56.70
65038;DHT22;51605;47.040;15.294;2023-02-01T02:44:25;20.00;56.70
65038;DHT22;51605;47.040;15.294;2023-02-01T02:47:19;20.10;56.70
65038;DHT22;51605;47.040;15.294;2023-02-01T02:52:48;20.00;56.80
65038;DHT22;51605;47.040;15.294;2023-02-01T02:55:37;20.00;56.80
65038;DHT22;51605;47.040;15.294;2023-02-01T02:58:05;20.00;56.80
65038;DHT22;51605;47.040;15.294;2023-02-01T03:00:51;20.00;56.80
65038;DHT22;51605;47.040;15.294;2023-02-01T03:03:40;20.00;56.80
65038;DHT22;51605;47.040;15.294;2023-02-01T03:06:24;20.10;56.90
65038;DHT22;51605;47.040;15.294;2023-02-01T03:08:51;20.00;56.80
65038;DHT22;51605;47.040;15.294;2023-02-01T03:11:19;20.00;56.90
65038;DHT22;51605;47.040;15.294;2023-02-01T03:13:53;20.00;56.80
65038;DHT22;51605;47.040;15.294;2023-02-01T03:19:23;20.00;56.80
65038;DHT22;51605;47.040;15.294;2023-02-01T03:21:55;20.00;56.80
65038;DHT22;51605;47.040;15.294;2023-02-01T03:24:46;20.10;56.80
65038;DHT22;51605;47.040;15.294;2023-02-01T03:29:47;20.10;56.90
65038;DHT22;51605;47.040;15.294;2023-02-01T03:32:14;20.10;56.80
65038;DHT22;51605;47.040;15.294;2023-02-01T03:34:40;20.10;56.80
65038;DHT22;51605;47.040;15.294;2023-02-01T03:37:11;20.10;56.70
65038;DHT22;51605;47.040;15.294;2023-02-01T03:42:16;20.00;56.80
65038;DHT22;51605;47.040;15.294;2023-02-01T03:45:15;20.00;56.70
65038;DHT22;51605;47.040;15.294;2023-02-01T03:47:45;20.00;56.80
65038;DHT22;51605;47.040;15.294;2023-02-01T03:50:15;20.10;56.70
65038;DHT22;51605;47.040;15.294;2023-02-01T03:52:51;20.00;56.60
65038;DHT22;51605;47.040;15.294;2023-02-01T03:55:19;20.00;56.80
65038;DHT22;51605;47.040;15.294;2023-02-01T03:58:15;20.10;56.80
65038;DHT22;51605;47.040;15.294;2023-02-01T04:00:45;20.00;56.80
65038;DHT22;51605;47.040;15.294;2023-02-01T04:03:15;20.10;56.80
65038;DHT22;51605;47.040;15.294;2023-02-01T04:05:40;20.10;56.90
65038;DHT22;51605;47.040;15.294;2023-02-01T04:08:06;20.10;56.80
65038;DHT22;51605;47.040;15.294;2023-02-01T04:10:32;20.10;56.80
65038;DHT22;51605;47.040;15.294;2023-02-01T04:12:58;20.00;56.70
65038;DHT22;51605;47.040;15.294;2023-02-01T04:15:23;20.10;56.70
65038;DHT22;51605;47.040;15.294;2023-02-01T04:17:49;20.00;56.70
65038;DHT22;51605;47.040;15.294;2023-02-01T04:20:15;20.10;56.70
65038;DHT22;51605;47.040;15.294;2023-02-01T04:22:41;20.00;56.80
65038;DHT22;51605;47.040;15.294;2023-02-01T04:25:07;20.10;56.70
65038;DHT22;51605;47.040;15.294;2023-02-01T04:27:33;20.10;56.70
65038;DHT22;51605;47.040;15.294;2023-02-01T04:29:59;20.10;56.70
65038;DHT22;51605;47.040;15.294;2023-02-01T04:32:24;20.00;56.70
65038;DHT22;51605;47.040;15.294;2023-02-01T04:34:50;20.00;56.70
65038;DHT22;51605;47.040;15.294;2023-02-01T04:37:16;20.10;56.80
65038;DHT22;51605;47.040;15.294;2023-02-01T04:39:41;20.10;56.80
65038;DHT22;51605;47.040;15.294;2023-02-01T04:42:07;20.00;56.80
65038;DHT22;51605;47.040;15.294;2023-02-01T04:44:34;20.00;56.80
65038;DHT22;51605;47.040;15.294;2023-02-01T04:46:59;20.00;56.80
65038;DHT22;51605;47.040;15.294;2023-02-01T04:49:25;20.10;56.70
65038;DHT22;51605;47.040;15.294;2023-02-01T04:51:52;20.10;56.70
65038;DHT22;51605;47.040;15.294;2023-02-01T04:54:17;20.10;56.70
65038;DHT22;51605;47.040;15.294;2023-02-01T04:56:43;20.10;56.70
65038;DHT22;51605;47.040;15.294;2023-02-01T04:59:11;20.10;56.80
65038;DHT22;51605;47.040;15.294;2023-02-01T05:01:36;20.10;56.70
65038;DHT22;51605;47.040;15.294;2023-02-01T05:04:02;20.10;56.70
65038;DHT22;51605;47.040;15.294;2023-02-01T05:06:28;20.10;56.70
65038;DHT22;51605;47.040;15.294;2023-02-01T05:08:54;20.10;56.70
65038;DHT22;51605;47.040;15.294;2023-02-01T05:11:19;20.10;56.70
65038;DHT22;51605;47.040;15.294;2023-02-01T05:14:03;20.10;56.70
65038;DHT22;51605;47.040;15.294;2023-02-01T05:16:29;20.10;56.70
65038;DHT22;51605;47.040;15.294;2023-02-01T05:18:55;20.10;56.60
65038;DHT22;51605;47.040;15.294;2023-02-01T05:21:21;20.10;56.70
65038;DHT22;51605;47.040;15.294;2023-02-01T05:23:46;20.10;56.70
65038;DHT22;51605;47.040;15.294;2023-02-01T05:26:31;20.10;56.60
65038;DHT22;51605;47.040;15.294;2023-02-01T05:28:57;20.10;56.60
65038;DHT22;51605;47.040;15.294;2023-02-01T05:31:23;20.10;56.70
65038;DHT22;51605;47.040;15.294;2023-02-01T05:33:49;20.10;56.70
65038;DHT22;51605;47.040;15.294;2023-02-01T05:36:15;20.10;56.60
65038;DHT22;51605;47.040;15.294;2023-02-01T05:38:40;20.10;56.60
65038;DHT22;51605;47.040;15.294;2023-02-01T05:41:06;20.10;56.70
65038;DHT22;51605;47.040;15.294;2023-02-01T05:43:32;20.10;56.70
65038;DHT22;51605;47.040;15.294;2023-02-01T05:45:57;20.10;57.60
65038;DHT22;51605;47.040;15.294;2023-02-01T05:48:23;20.10;56.80
65038;DHT22;51605;47.040;15.294;2023-02-01T05:50:49;20.10;56.70
65038;DHT22;51605;47.040;15.294;2023-02-01T05:53:14;20.10;56.60
65038;DHT22;51605;47.040;15.294;2023-02-01T05:55:41;20.10;56.60
65038;DHT22;51605;47.040;15.294;2023-02-01T05:58:07;20.10;56.60
65038;DHT22;51605;47.040;15.294;2023-02-01T06:00:33;20.10;56.60
65038;DHT22;51605;47.040;15.294;2023-02-01T06:02:58;20.00;56.70
65038;DHT22;51605;47.040;15.294;2023-02-01T06:05:24;20.10;56.70
65038;DHT22;51605;47.040;15.294;2023-02-01T06:07:50;20.10;56.70
65038;DHT22;51605;47.040;15.294;2023-02-01T06:10:17;20.10;56.60
65038;DHT22;51605;47.040;15.294;2023-02-01T06:12:43;20.10;56.70
65038;DHT22;51605;47.040;15.294;2023-02-01T06:15:10;20.10;56.70
65038;DHT22;51605;47.040;15.294;2023-02-01T06:17:36;20.10;56.80
65038;DHT22;51605;47.040;15.294;2023-02-01T06:20:03;20.10;56.70
65038;DHT22;51605;47.040;15.294;2023-02-01T06:22:29;20.10;56.60
65038;DHT22;51605;47.040;15.294;2023-02-01T06:24:54;20.10;56.70
65038;DHT22;51605;47.040;15.294;2023-02-01T06:27:20;20.10;56.60
65038;DHT22;51605;47.040;15.294;2023-02-01T06:29:46;20.10;56.60
65038;DHT22;51605;47.040;15.294;2023-02-01T06:32:11;20.10;56.60
65038;DHT22;51605;47.040;15.294;2023-02-01T06:34:37;20.10;56.60
65038;DHT22;51605;47.040;15.294;2023-02-01T06:37:04;20.10;56.60
65038;DHT22;51605;47.040;15.294;2023-02-01T06:39:30;20.00;56.60
65038;DHT22;51605;47.040;15.294;2023-02-01T06:41:56;20.00;56.70
65038;DHT22;51605;47.040;15.294;2023-02-01T06:44:21;20.00;56.70
65038;DHT22;51605;47.040;15.294;2023-02-01T06:46:47;20.00;56.70
65038;DHT22;51605;47.040;15.294;2023-02-01T06:49:13;20.10;56.70
65038;DHT22;51605;47.040;15.294;2023-02-01T06:51:38;20.10;56.70
65038;DHT22;51605;47.040;15.294;2023-02-01T06:54:04;20.00;56.70
65038;DHT22;51605;47.040;15.294;2023-02-01T06:56:30;20.00;56.80
65038;DHT22;51605;47.040;15.294;2023-02-01T06:58:56;20.00;56.70
65038;DHT22;51605;47.040;15.294;2023-02-01T07:01:22;20.00;56.80
65038;DHT22;51605;47.040;15.294;2023-02-01T07:03:49;20.00;56.80
65038;DHT22;51605;47.040;15.294;2023-02-01T07:06:16;20.00;56.70
65038;DHT22;51605;47.040;15.294;2023-02-01T07:08:43;20.00;56.80
65038;DHT22;51605;47.040;15.294;2023-02-01T07:11:11;20.00;56.80
65038;DHT22;51605;47.040;15.294;2023-02-01T07:13:38;20.00;56.70
65038;DHT22;51605;47.040;15.294;2023-02-01T07:16:11;20.10;56.70
65038;DHT22;51605;47.040;15.294;2023-02-01T07:18:37;20.00;56.70
65038;DHT22;51605;47.040;15.294;2023-02-01T07:21:03;20.00;56.70
65038;DHT22;51605;47.040;15.294;2023-02-01T07:23:29;20.00;56.60
65038;DHT22;51605;47.040;15.294;2023-02-01T07:26:00;20.10;56.60
65038;DHT22;51605;47.040;15.294;2023-02-01T07:28:26;20.00;56.60
65038;DHT22;51605;47.040;15.294;2023-02-01T07:30:53;20.00;56.60
65038;DHT22;51605;47.040;15.294;2023-02-01T07:33:20;20.00;56.60
65038;DHT22;51605;47.040;15.294;2023-02-01T07:35:47;20.00;56.60
65038;DHT22;51605;47.040;15.294;2023-02-01T07:38:13;20.10;56.60
65038;DHT22;51605;47.040;15.294;2023-02-01T07:40:39;20.10;56.60
65038;DHT22;51605;47.040;15.294;2023-02-01T07:43:05;20.00;56.60
65038;DHT22;51605;47.040;15.294;2023-02-01T07:45:35;20.10;56.60
65038;DHT22;51605;47.040;15.294;2023-02-01T07:48:00;20.00;56.70
65038;DHT22;51605;47.040;15.294;2023-02-01T07:50:26;20.00;56.50
65038;DHT22;51605;47.040;15.294;2023-02-01T07:52:52;20.10;56.40
65038;DHT22;51605;47.040;15.294;2023-02-01T07:55:19;20.00;56.30
65038;DHT22;51605;47.040;15.294;2023-02-01T07:57:45;20.00;56.00
65038;DHT22;51605;47.040;15.294;2023-02-01T08:00:11;20.00;56.00
65038;DHT22;51605;47.040;15.294;2023-02-01T08:03:00;20.00;55.50
65038;DHT22;51605;47.040;15.294;2023-02-01T08:05:25;20.00;55.50
65038;DHT22;51605;47.040;15.294;2023-02-01T08:07:51;20.00;55.80
65038;DHT22;51605;47.040;15.294;2023-02-01T08:10:18;20.00;55.80
65038;DHT22;51605;47.040;15.294;2023-02-01T08:12:44;20.00;55.90
65038;DHT22;51605;47.040;15.294;2023-02-01T08:15:14;20.00;56.00
65038;DHT22;51605;47.040;15.294;2023-02-01T08:17:45;20.00;56.00
65038;DHT22;51605;47.040;15.294;2023-02-01T08:20:11;20.00;56.00
65038;DHT22;51605;47.040;15.294;2023-02-01T08:22:38;20.00;56.10
65038;DHT22;51605;47.040;15.294;2023-02-01T08:25:05;20.00;56.10
65038;DHT22;51605;47.040;15.294;2023-02-01T08:27:33;20.00;56.10
65038;DHT22;51605;47.040;15.294;2023-02-01T08:29:58;20.00;56.20
65038;DHT22;51605;47.040;15.294;2023-02-01T08:32:25;20.00;56.10
65038;DHT22;51605;47.040;15.294;2023-02-01T08:34:51;20.00;56.20
65038;DHT22;51605;47.040;15.294;2023-02-01T08:37:16;20.00;56.10
65038;DHT22;51605;47.040;15.294;2023-02-01T08:39:42;20.00;56.10
65038;DHT22;51605;47.040;15.294;2023-02-01T08:42:11;20.00;57.10
65038;DHT22;51605;47.040;15.294;2023-02-01T08:44:55;20.00;56.20
65038;DHT22;51605;47.040;15.294;2023-02-01T08:47:21;20.00;56.20
65038;DHT22;51605;47.040;15.294;2023-02-01T08:49:47;20.00;56.20
65038;DHT22;51605;47.040;15.294;2023-02-01T08:52:13;20.00;56.20
65038;DHT22;51605;47.040;15.294;2023-02-01T08:54:39;20.00;56.20
65038;DHT22;51605;47.040;15.294;2023-02-01T08:57:06;20.00;56.20
65038;DHT22;51605;47.040;15.294;2023-02-01T08:59:32;20.00;56.30
65038;DHT22;51605;47.040;15.294;2023-02-01T09:01:58;20.00;56.20
65038;DHT22;51605;47.040;15.294;2023-02-01T09:04:23;20.00;56.20
65038;DHT22;51605;47.040;15.294;2023-02-01T09:06:49;20.00;56.20
65038;DHT22;51605;47.040;15.294;2023-02-01T09:09:14;20.00;56.30
65038;DHT22;51605;47.040;15.294;2023-02-01T09:11:40;20.00;56.40
65038;DHT22;51605;47.040;15.294;2023-02-01T09:14:06;20.00;56.40
65038;DHT22;51605;47.040;15.294;2023-02-01T09:16:31;20.00;56.30
65038;DHT22;51605;47.040;15.294;2023-02-01T09:18:57;20.00;56.40
65038;DHT22;51605;47.040;15.294;2023-02-01T09:21:23;20.00;56.30
65038;DHT22;51605;47.040;15.294;2023-02-01T09:23:51;20.00;56.40
65038;DHT22;51605;47.040;15.294;2023-02-01T09:26:16;20.00;56.40
65038;DHT22;51605;47.040;15.294;2023-02-01T09:28:42;20.00;56.40
65038;DHT22;51605;47.040;15.294;2023-02-01T09:31:08;20.00;56.40
65038;DHT22;51605;47.040;15.294;2023-02-01T09:33:33;20.00;56.50
65038;DHT22;51605;47.040;15.294;2023-02-01T09:36:01;20.00;56.50
65038;DHT22;51605;47.040;15.294;2023-02-01T09:38:28;20.00;56.40
65038;DHT22;51605;47.040;15.294;2023-02-01T09:40:54;20.00;56.50
65038;DHT22;51605;47.040;15.294;2023-02-01T09:48:28;20.00;56.60
65038;DHT22;51605;47.040;15.294;2023-02-01T09:50:57;20.00;56.50
65038;DHT22;51605;47.040;15.294;2023-02-01T09:53:40;20.00;56.60
65038;DHT22;51605;47.040;15.294;2023-02-01T09:56:14;20.00;56.50
65038;DHT22;51605;47.040;15.294;2023-02-01T09:59:01;20.00;56.50
65038;DHT22;51605;47.040;15.294;2023-02-01T10:01:31;20.00;56.50
65038;DHT22;51605;47.040;15.294;2023-02-01T10:04:03;20.00;56.40
65038;DHT22;51605;47.040;15.294;2023-02-01T10:09:30;20.00;56.50
65038;DHT22;51605;47.040;15.294;2023-02-01T10:12:29;20.00;56.40
65038;DHT22;51605;47.040;15.294;2023-02-01T10:18:27;20.00;56.40
65038;DHT22;51605;47.040;15.294;2023-02-01T10:26:15;20.00;56.60
65038;DHT22;51605;47.040;15.294;2023-02-01T10:28:44;20.00;56.60
65038;DHT22;51605;47.040;15.294;2023-02-01T10:31:10;20.00;56.60
65038;DHT22;51605;47.040;15.294;2023-02-01T10:33:44;20.00;56.60
65038;DHT22;51605;47.040;15.294;2023-02-01T10:36:21;20.00;56.60
65038;DHT22;51605;47.040;15.294;2023-02-01T10:38:48;20.00;56.60
65038;DHT22;51605;47.040;15.294;2023-02-01T10:41:19;20.00;56.60
65038;DHT22;51605;47.040;15.294;2023-02-01T10:43:50;20.00;56.60
65038;DHT22;51605;47.040;15.294;2023-02-01T10:46:16;20.00;57.10
65038;DHT22;51605;47.040;15.294;2023-02-01T10:48:42;20.00;56.60
65038;DHT22;51605;47.040;15.294;2023-02-01T10:51:48;20.10;56.60
65038;DHT22;51605;47.040;15.294;2023-02-01T10:54:19;20.00;56.60
65038;DHT22;51605;47.040;15.294;2023-02-01T10:56:46;20.00;56.50
65038;DHT22;51605;47.040;15.294;2023-02-01T10:59:19;20.00;56.60
65038;DHT22;51605;47.040;15.294;2023-02-01T11:01:47;20.00;56.50
65038;DHT22;51605;47.040;15.294;2023-02-01T11:04:19;20.00;56.40
65038;DHT22;51605;47.040;15.294;2023-02-01T11:06:47;20.00;56.50
65038;DHT22;51605;47.040;15.294;2023-02-01T11:09:22;20.00;56.60
65038;DHT22;51605;47.040;15.294;2023-02-01T11:16:40;20.00;56.60
65038;DHT22;51605;47.040;15.294;2023-02-01T11:19:06;20.00;56.60
65038;DHT22;51605;47.040;15.294;2023-02-01T11:21:35;20.00;56.50
65038;DHT22;51605;47.040;15.294;2023-02-01T11:24:04;20.00;56.60
65038;DHT22;51605;47.040;15.294;2023-02-01T11:26:32;20.00;56.50
65038;DHT22;51605;47.040;15.294;2023-02-01T11:29:03;20.10;56.60
65038;DHT22;51605;47.040;15.294;2023-02-01T11:31:30;20.00;56.50
65038;DHT22;51605;47.040;15.294;2023-02-01T11:34:04;20.00;56.50
65038;DHT22;51605;47.040;15.294;2023-02-01T11:36:32;20.00;56.60
65038;DHT22;51605;47.040;15.294;2023-02-01T11:39:19;20.00;56.60
65038;DHT22;51605;47.040;15.294;2023-02-01T11:42:11;20.00;56.50
65038;DHT22;51605;47.040;15.294;2023-02-01T11:44:42;20.00;56.50
65038;DHT22;51605;47.040;15.294;2023-02-01T11:47:31;20.00;56.50
65038;DHT22;51605;47.040;15.294;2023-02-01T11:50:12;20.00;56.60
65038;DHT22;51605;47.040;15.294;2023-02-01T11:53:20;20.00;56.50
65038;DHT22;51605;47.040;15.294;2023-02-01T12:03:37;20.00;56.70
65038;DHT22;51605;47.040;15.294;2023-02-01T12:08:56;20.00;56.60
65038;DHT22;51605;47.040;15.294;2023-02-01T12:20:13;20.00;56.60
65038;DHT22;51605;47.040;15.294;2023-02-01T12:41:58;20.00;56.60
65038;DHT22;51605;47.040;15.294;2023-02-01T12:44:43;20.00;56.60
65038;DHT22;51605;47.040;15.294;2023-02-01T12:50:18;20.00;56.60
65038;DHT22;51605;47.040;15.294;2023-02-01T12:52:45;20.00;56.60
65038;DHT22;51605;47.040;15.294;2023-02-01T12:55:33;20.00;56.60
65038;DHT22;51605;47.040;15.294;2023-02-01T13:00:40;20.00;56.60
65038;DHT22;51605;47.040;15.294;2023-02-01T13:05:58;20.00;56.60
65038;DHT22;51605;47.040;15.294;2023-02-01T13:09:01;20.00;56.60
65038;DHT22;51605;47.040;15.294;2023-02-01T13:11:34;20.00;56.60
65038;DHT22;51605;47.040;15.294;2023-02-01T13:14:40;20.00;56.60
65038;DHT22;51605;47.040;15.294;2023-02-01T13:17:19;20.00;56.60
65038;DHT22;51605;47.040;15.294;2023-02-01T13:19:53;20.00;56.50
65038;DHT22;51605;47.040;15.294;2023-02-01T13:22:25;20.00;56.60
65038;DHT22;51605;47.040;15.294;2023-02-01T13:24:56;20.00;56.60
65038;DHT22;51605;47.040;15.294;2023-02-01T13:27:22;20.00;56.50
65038;DHT22;51605;47.040;15.294;2023-02-01T13:37:50;20.00;56.50
65038;DHT22;51605;47.040;15.294;2023-02-01T13:40:44;20.00;56.60
65038;DHT22;51605;47.040;15.294;2023-02-01T13:43:30;20.00;56.60
65038;DHT22;51605;47.040;15.294;2023-02-01T13:46:02;20.00;56.60
65038;DHT22;51605;47.040;15.294;2023-02-01T13:48:41;20.00;56.60
65038;DHT22;51605;47.040;15.294;2023-02-01T13:51:12;20.00;56.60
65038;DHT22;51605;47.040;15.294;2023-02-01T13:53:47;20.00;57.50
65038;DHT22;51605;47.040;15.294;2023-02-01T13:56:15;20.00;56.60
65038;DHT22;51605;47.040;15.294;2023-02-01T13:58:43;20.00;56.60
65038;DHT22;51605;47.040;15.294;2023-02-01T14:03:56;20.00;56.90
65038;DHT22;51605;47.040;15.294;2023-02-01T14:11:41;20.00;56.80
65038;DHT22;51605;47.040;15.294;2023-02-01T14:19:36;20.00;57.30
65038;DHT22;51605;47.040;15.294;2023-02-01T14:22:32;20.00;56.90
65038;DHT22;51605;47.040;15.294;2023-02-01T14:24:58;20.00;56.90
65038;DHT22;51605;47.040;15.294;2023-02-01T14:27:29;20.00;56.80
65038;DHT22;51605;47.040;15.294;2023-02-01T14:30:02;20.00;56.80
65038;DHT22;51605;47.040;15.294;2023-02-01T14:32:33;20.00;56.90
65038;DHT22;51605;47.040;15.294;2023-02-01T14:35:01;20.00;56.90
65038;DHT22;51605;47.040;15.294;2023-02-01T14:37:33;20.00;56.90
65038;DHT22;51605;47.040;15.294;2023-02-01T14:40:06;20.00;56.90
65038;DHT22;51605;47.040;15.294;2023-02-01T14:42:51;20.00;56.60
65038;DHT22;51605;47.040;15.294;2023-02-01T14:56:06;20.00;55.70
65038;DHT22;51605;47.040;15.294;2023-02-01T15:04:14;20.00;55.90
65038;DHT22;51605;47.040;15.294;2023-02-01T15:09:36;20.00;55.90
65038;DHT22;51605;47.040;15.294;2023-02-01T15:14:41;20.00;55.90
65038;DHT22;51605;47.040;15.294;2023-02-01T15:17:21;20.00;55.90
65038;DHT22;51605;47.040;15.294;2023-02-01T15:19:58;20.00;56.60
65038;DHT22;51605;47.040;15.294;2023-02-01T15:22:25;20.00;56.10
65038;DHT22;51605;47.040;15.294;2023-02-01T15:24:54;20.00;55.90
65038;DHT22;51605;47.040;15.294;2023-02-01T15:27:21;20.00;55.90
65038;DHT22;51605;47.040;15.294;2023-02-01T15:29:46;20.00;55.90
65038;DHT22;51605;47.040;15.294;2023-02-01T15:32:40;20.00;55.90
65038;DHT22;51605;47.040;15.294;2023-02-01T15:38:33;20.00;56.00
65038;DHT22;51605;47.040;15.294;2023-02-01T15:41:09;20.00;56.00
65038;DHT22;51605;47.040;15.294;2023-02-01T15:46:22;20.00;56.90
65038;DHT22;51605;47.040;15.294;2023-02-01T15:48:50;20.00;55.90
65038;DHT22;51605;47.040;15.294;2023-02-01T15:51:22;20.00;56.00
65038;DHT22;51605;47.040;15.294;2023-02-01T15:54:01;20.00;56.00
65038;DHT22;51605;47.040;15.294;2023-02-01T15:56:38;20.00;56.00
65038;DHT22;51605;47.040;15.294;2023-02-01T15:59:28;20.00;55.90
65038;DHT22;51605;47.040;15.294;2023-02-01T16:01:55;20.00;55.90
65038;DHT22;51605;47.040;15.294;2023-02-01T16:04:26;20.00;55.90
65038;DHT22;51605;47.040;15.294;2023-02-01T16:06:58;20.00;56.00
65038;DHT22;51605;47.040;15.294;2023-02-01T16:12:03;20.00;56.00
65038;DHT22;51605;47.040;15.294;2023-02-01T16:14:29;20.00;56.00
65038;DHT22;51605;47.040;15.294;2023-02-01T16:16:57;20.00;56.00
65038;DHT22;51605;47.040;15.294;2023-02-01T16:19:23;20.00;56.00
65038;DHT22;51605;47.040;15.294;2023-02-01T16:21:54;20.00;56.00
65038;DHT22;51605;47.040;15.294;2023-02-01T16:24:20;20.00;56.00
65038;DHT22;51605;47.040;15.294;2023-02-01T16:26:48;20.00;55.90
65038;DHT22;51605;47.040;15.294;2023-02-01T16:29:14;20.00;55.90
65038;DHT22;51605;47.040;15.294;2023-02-01T16:31:40;20.00;55.90
65038;DHT22;51605;47.040;15.294;2023-02-01T16:34:13;20.00;55.90
65038;DHT22;51605;47.040;15.294;2023-02-01T16:36:39;20.00;55.90
65038;DHT22;51605;47.040;15.294;2023-02-01T16:39:04;20.00;55.90
65038;DHT22;51605;47.040;15.294;2023-02-01T16:41:32;20.00;55.90
65038;DHT22;51605;47.040;15.294;2023-02-01T16:43:58;20.00;55.90
65038;DHT22;51605;47.040;15.294;2023-02-01T16:46:25;20.00;55.90
65038;DHT22;51605;47.040;15.294;2023-02-01T16:48:57;20.00;55.90
65038;DHT22;51605;47.040;15.294;2023-02-01T16:51:25;20.00;55.90
65038;DHT22;51605;47.040;15.294;2023-02-01T16:53:52;20.00;55.90
65038;DHT22;51605;47.040;15.294;2023-02-01T16:56:31;20.00;55.90
65038;DHT22;51605;47.040;15.294;2023-02-01T16:58:57;20.00;56.00
65038;DHT22;51605;47.040;15.294;2023-02-01T17:01:23;20.00;56.00
65038;DHT22;51605;47.040;15.294;2023-02-01T17:03:49;20.00;56.00
65038;DHT22;51605;47.040;15.294;2023-02-01T17:06:18;20.00;56.00
65038;DHT22;51605;47.040;15.294;2023-02-01T17:08:49;20.00;55.90
65038;DHT22;51605;47.040;15.294;2023-02-01T17:11:16;20.00;56.00
65038;DHT22;51605;47.040;15.294;2023-02-01T17:13:42;20.00;55.90
65038;DHT22;51605;47.040;15.294;2023-02-01T17:16:28;20.00;55.90
65038;DHT22;51605;47.040;15.294;2023-02-01T17:18:58;20.00;55.90
65038;DHT22;51605;47.040;15.294;2023-02-01T17:21:26;20.00;56.00
65038;DHT22;51605;47.040;15.294;2023-02-01T17:23:53;20.00;56.00
65038;DHT22;51605;47.040;15.294;2023-02-01T17:26:20;20.00;56.00
65038;DHT22;51605;47.040;15.294;2023-02-01T17:28:46;20.00;56.00
65038;DHT22;51605;47.040;15.294;2023-02-01T17:31:13;20.00;56.00
65038;DHT22;51605;47.040;15.294;2023-02-01T17:33:43;20.00;56.00
65038;DHT22;51605;47.040;15.294;2023-02-01T17:36:13;20.00;55.90
65038;DHT22;51605;47.040;15.294;2023-02-01T17:38:39;20.00;56.00
65038;DHT22;51605;47.040;15.294;2023-02-01T17:41:04;20.00;56.00
65038;DHT22;51605;47.040;15.294;2023-02-01T17:43:30;20.00;56.00
65038;DHT22;51605;47.040;15.294;2023-02-01T17:46:16;20.00;56.00
65038;DHT22;51605;47.040;15.294;2023-02-01T17:48:43;20.00;56.00
65038;DHT22;51605;47.040;15.294;2023-02-01T17:51:17;20.00;56.00
65038;DHT22;51605;47.040;15.294;2023-02-01T17:53:43;20.00;56.00
65038;DHT22;51605;47.040;15.294;2023-02-01T17:56:19;20.00;55.90
65038;DHT22;51605;47.040;15.294;2023-02-01T17:58:46;20.00;56.90
65038;DHT22;51605;47.040;15.294;2023-02-01T18:03:41;20.00;56.00